Time;durP1;ratioP1;P1;durP2;ratioP2;P2;SDS_P1;SDS_P2;PMS_P1;PMS_P2;Temp;Humidity;BMP_temperature;BMP_pressure;BME280_temperature;BME280_humidity;BME280_pressure;Samples;Min_cycle;Max_cycle;Signal;HPM_P1;HPM_P2
2022/04/17 00:01:02;;;;;;;12.00;7.45;;;7.40;77.30;;;;;;5035954;28;20498;-48
2022/04/17 00:03:27;;;;;;;13.20;8.40;;;7.40;77.80;;;;;;5035529;28;20040;-48
2022/04/17 00:05:53;;;;;;;12.88;8.20;;;7.40;78.20;;;;;;5053742;28;20037;-48
2022/04/17 00:08:19;;;;;;;12.18;7.70;;;7.30;77.50;;;;;;5035081;28;20037;-48
2022/04/17 00:10:46;;;;;;;13.23;8.45;;;7.30;77.70;;;;;;5053020;28;20135;-48
2022/04/17 00:13:12;;;;;;;14.52;8.48;;;7.30;77.50;;;;;;5050264;28;20037;-48
2022/04/17 00:15:37;;;;;;;13.70;7.70;;;7.30;78.40;;;;;;5033361;28;20036;-49
2022/04/17 00:18:03;;;;;;;11.98;8.10;;;7.20;78.60;;;;;;5034049;28;20037;-48
2022/04/17 00:20:28;;;;;;;14.40;8.75;;;7.20;79.20;;;;;;5035554;28;20072;-49
2022/04/17 00:22:54;;;;;;;11.32;8.40;;;7.20;79.30;;;;;;5052768;28;20029;-48
2022/04/17 00:25:20;;;;;;;11.23;7.88;;;7.20;79.20;;;;;;5052525;28;20045;-48
2022/04/17 00:27:45;;;;;;;15.93;7.65;;;7.10;79.00;;;;;;5045435;28;20072;-50
2022/04/17 00:30:11;;;;;;;14.73;8.10;;;7.10;78.80;;;;;;5033247;28;20037;-48
2022/04/17 00:32:37;;;;;;;9.85;7.25;;;7.10;78.90;;;;;;5050239;28;20443;-53
2022/04/17 00:35:05;;;;;;;12.57;7.68;;;7.10;79.10;;;;;;5053094;28;20037;-52
2022/04/17 00:37:30;;;;;;;11.43;7.38;;;7.20;78.90;;;;;;5027886;28;20041;-49
2022/04/17 00:39:56;;;;;;;11.73;7.50;;;7.10;78.60;;;;;;5049481;28;20052;-52
2022/04/17 00:42:22;;;;;;;11.27;7.35;;;7.10;79.00;;;;;;5052751;28;20160;-52
2022/04/17 00:44:47;;;;;;;13.52;7.00;;;7.10;79.30;;;;;;5102680;22;20057;-50
2022/04/17 00:47:15;;;;;;;13.93;7.75;;;7.00;78.90;;;;;;5048287;28;20041;-47
2022/04/17 00:49:45;;;;;;;11.95;7.40;;;7.00;79.60;;;;;;5029920;28;20037;-48
2022/04/17 00:52:12;;;;;;;11.50;7.50;;;7.00;80.20;;;;;;5042222;28;20041;-53
2022/04/17 00:54:45;;;;;;;13.15;7.35;;;7.00;80.10;;;;;;5037677;28;20524;-52
2022/04/17 00:57:12;;;;;;;12.18;8.00;;;6.90;80.40;;;;;;5033032;28;20052;-53
2022/04/17 00:59:42;;;;;;;13.70;8.85;;;6.90;80.60;;;;;;5032716;28;20108;-50
2022/04/17 01:02:08;;;;;;;12.38;8.73;;;6.80;81.50;;;;;;5033217;28;20053;-51
2022/04/17 01:04:34;;;;;;;16.65;9.25;;;6.70;82.10;;;;;;5034721;28;20184;-50
2022/04/17 01:06:59;;;;;;;12.02;8.07;;;6.70;82.70;;;;;;5033440;28;20112;-48
2022/04/17 01:09:25;;;;;;;12.27;8.55;;;6.60;83.20;;;;;;5034033;28;20059;-50
2022/04/17 01:11:51;;;;;;;12.20;8.18;;;6.60;83.70;;;;;;5041965;28;20438;-51
2022/04/17 01:14:17;;;;;;;14.40;8.40;;;6.50;84.40;;;;;;5024245;28;20055;-53
2022/04/17 01:16:43;;;;;;;11.32;7.70;;;6.40;84.40;;;;;;5052398;28;20405;-51
2022/04/17 01:19:11;;;;;;;12.85;8.23;;;6.40;84.50;;;;;;5050371;28;20037;-48
2022/04/17 01:21:41;;;;;;;12.10;7.90;;;6.30;85.20;;;;;;5049801;28;20041;-48
2022/04/17 01:26:56;;;;;;;12.65;7.75;;;6.30;87.00;;;;;;5041835;28;20107;-49
2022/04/17 01:29:27;;;;;;;13.32;7.90;;;6.20;87.10;;;;;;5032323;28;20120;-49
2022/04/17 01:31:53;;;;;;;12.10;7.95;;;6.10;87.10;;;;;;5014937;28;20077;-49
2022/04/17 01:34:20;;;;;;;11.00;7.70;;;6.00;88.20;;;;;;5050203;28;20504;-48
2022/04/17 01:36:48;;;;;;;12.30;7.70;;;6.00;88.30;;;;;;5051904;28;20044;-50
2022/04/17 01:39:14;;;;;;;11.27;7.57;;;6.00;89.20;;;;;;5052159;28;20048;-52
2022/04/17 01:41:40;;;;;;;14.13;8.20;;;5.90;89.00;;;;;;5042018;28;20245;-50
2022/04/17 01:44:06;;;;;;;11.77;7.90;;;5.90;89.80;;;;;;5049455;28;20400;-51
2022/04/17 01:46:32;;;;;;;14.30;8.15;;;5.80;90.00;;;;;;5050880;28;20037;-51
2022/04/17 01:48:58;;;;;;;13.43;7.70;;;5.90;90.00;;;;;;5033550;28;20045;-53
2022/04/17 01:51:23;;;;;;;12.30;8.00;;;5.80;90.10;;;;;;5050792;28;20064;-48
2022/04/17 01:53:49;;;;;;;12.40;7.82;;;5.80;90.10;;;;;;5050948;28;20037;-48
2022/04/17 01:56:14;;;;;;;12.23;7.85;;;5.80;90.30;;;;;;5051786;28;20047;-53
2022/04/17 01:58:40;;;;;;;11.70;7.57;;;5.80;90.40;;;;;;5052037;28;20037;-51
2022/04/17 02:01:06;;;;;;;13.85;8.15;;;5.70;90.40;;;;;;5050458;28;20037;-50
2022/04/17 02:03:31;;;;;;;11.60;7.80;;;5.70;90.30;;;;;;5044514;28;20113;-48
2022/04/17 02:05:57;;;;;;;11.70;7.53;;;5.70;90.70;;;;;;5023125;28;20556;-48
2022/04/17 02:08:23;;;;;;;13.07;7.50;;;5.60;90.90;;;;;;5034164;28;20116;-48
2022/04/17 02:10:49;;;;;;;12.65;8.23;;;5.60;90.80;;;;;;5050667;28;20098;-48
2022/04/17 02:13:15;;;;;;;13.55;7.68;;;5.50;91.60;;;;;;5036827;28;20465;-49
2022/04/17 02:15:41;;;;;;;10.50;7.22;;;5.50;91.50;;;;;;5050796;28;20032;-49
2022/04/17 02:18:06;;;;;;;11.13;7.25;;;5.50;91.50;;;;;;5051313;28;20178;-48
2022/04/17 02:20:32;;;;;;;11.75;7.40;;;5.40;91.70;;;;;;5050876;28;20123;-48
2022/04/17 02:22:57;;;;;;;12.90;7.55;;;5.40;92.00;;;;;;5042317;28;20069;-48
2022/04/17 02:25:23;;;;;;;13.43;8.00;;;5.40;92.20;;;;;;5051142;28;20047;-51
2022/04/17 02:27:48;;;;;;;13.13;7.70;;;5.40;92.40;;;;;;5051271;28;20044;-48
2022/04/17 02:30:14;;;;;;;15.45;8.57;;;5.40;92.30;;;;;;5051289;28;20175;-50
2022/04/17 02:32:40;;;;;;;13.60;8.40;;;5.40;92.50;;;;;;5032586;28;20094;-48
2022/04/17 02:35:07;;;;;;;13.50;7.97;;;5.40;92.70;;;;;;5017132;28;20511;-48
2022/04/17 02:37:36;;;;;;;12.45;8.00;;;5.30;92.90;;;;;;5003016;28;20033;-48
2022/04/17 02:40:02;;;;;;;12.02;7.60;;;5.30;93.00;;;;;;5050983;28;20043;-48
2022/04/17 02:42:28;;;;;;;12.55;7.65;;;5.30;93.20;;;;;;5033263;28;20126;-48
2022/04/17 02:44:53;;;;;;;13.85;8.05;;;5.30;93.20;;;;;;5049287;28;20076;-51
2022/04/17 02:50:07;;;;;;;11.65;7.78;;;5.20;93.50;;;;;;5048609;28;20056;-47
2022/04/17 02:52:33;;;;;;;12.40;7.75;;;5.20;93.60;;;;;;5033374;28;20554;-49
2022/04/17 02:54:58;;;;;;;11.38;7.75;;;5.30;93.70;;;;;;5051015;28;20041;-49
2022/04/17 02:57:24;;;;;;;12.35;8.13;;;5.30;93.80;;;;;;5050120;28;20144;-48
2022/04/17 02:59:49;;;;;;;13.02;7.97;;;5.20;93.90;;;;;;5050488;28;20063;-49
2022/04/17 03:07:44;;;;;;;11.27;8.15;;;5.20;94.40;;;;;;5018757;28;20045;-49
2022/04/17 03:10:09;;;;;;;12.63;8.13;;;5.20;94.70;;;;;;5034758;28;20043;-49
2022/04/17 03:12:38;;;;;;;12.73;8.43;;;5.10;94.80;;;;;;5052240;28;20037;-50
2022/04/17 03:15:06;;;;;;;12.25;8.13;;;5.00;94.90;;;;;;5054349;28;20052;-49
2022/04/17 03:17:31;;;;;;;13.40;8.27;;;5.00;95.10;;;;;;5040731;28;20041;-50
2022/04/17 03:19:57;;;;;;;14.18;8.70;;;5.00;95.20;;;;;;5034908;28;20037;-49
2022/04/17 03:22:25;;;;;;;12.77;8.52;;;5.00;95.40;;;;;;5054484;28;20400;-49
2022/04/17 03:24:51;;;;;;;12.35;8.05;;;5.00;95.90;;;;;;5054352;28;20560;-50
2022/04/17 03:27:17;;;;;;;14.50;8.70;;;5.00;96.10;;;;;;5053253;28;20095;-49
2022/04/17 03:29:43;;;;;;;14.55;8.55;;;5.00;96.00;;;;;;5054260;28;20398;-49
2022/04/17 03:32:08;;;;;;;13.15;8.30;;;5.00;95.80;;;;;;5041768;28;20043;-49
2022/04/17 03:34:34;;;;;;;14.27;7.93;;;4.90;95.80;;;;;;5040039;28;20431;-50
2022/04/17 03:36:59;;;;;;;14.25;8.52;;;4.90;95.80;;;;;;5054211;28;20124;-49
2022/04/17 03:39:26;;;;;;;12.73;7.93;;;4.90;95.80;;;;;;5054299;28;20121;-50
2022/04/17 03:41:53;;;;;;;12.85;8.15;;;4.80;95.90;;;;;;5046188;28;20432;-50
2022/04/17 03:44:19;;;;;;;16.02;8.82;;;4.80;95.90;;;;;;5034002;28;20107;-49
2022/04/17 03:46:45;;;;;;;14.15;8.57;;;4.80;96.10;;;;;;5034174;28;20116;-50
2022/04/17 03:49:11;;;;;;;15.50;9.23;;;4.70;96.10;;;;;;5026098;28;20051;-50
2022/04/17 03:51:37;;;;;;;15.10;9.23;;;4.70;96.20;;;;;;5054056;28;20041;-48
2022/04/17 03:54:03;;;;;;;12.50;8.65;;;4.80;96.50;;;;;;5053896;28;20397;-49
2022/04/17 03:56:28;;;;;;;13.15;8.60;;;4.70;96.40;;;;;;5052247;28;20037;-49
2022/04/17 03:58:54;;;;;;;13.23;8.52;;;4.70;96.50;;;;;;5044223;28;20486;-50
2022/04/17 04:01:20;;;;;;;15.20;8.55;;;4.70;96.80;;;;;;5054065;28;20044;-50
2022/04/17 04:03:46;;;;;;;15.30;8.30;;;4.70;96.90;;;;;;5053989;28;20520;-48
2022/04/17 04:06:12;;;;;;;14.50;9.25;;;4.70;97.00;;;;;;5034824;28;20036;-50
2022/04/17 04:08:38;;;;;;;13.35;8.63;;;4.60;97.20;;;;;;5054034;28;20048;-49
2022/04/17 04:11:03;;;;;;;13.07;8.68;;;4.60;97.20;;;;;;5052404;28;20036;-49
2022/04/17 04:13:28;;;;;;;12.93;8.38;;;4.60;97.40;;;;;;5053069;28;20041;-50
2022/04/17 04:15:57;;;;;;;14.07;8.57;;;4.60;97.60;;;;;;5053819;28;20152;-49
2022/04/17 04:18:22;;;;;;;14.68;8.75;;;4.50;98.20;;;;;;5053761;28;20041;-49
2022/04/17 04:20:48;;;;;;;12.75;8.55;;;4.50;98.10;;;;;;5053507;28;20514;-49
2022/04/17 04:23:13;;;;;;;16.77;9.52;;;4.50;98.20;;;;;;5053219;28;20045;-49
2022/04/17 04:25:39;;;;;;;15.30;9.25;;;4.50;98.30;;;;;;5052811;28;20485;-50
2022/04/17 04:30:49;;;;;;;13.38;8.90;;;4.60;97.90;;;;;;5053769;28;20099;-49
2022/04/17 04:33:14;;;;;;;15.55;8.93;;;4.60;98.10;;;;;;5053834;28;20512;-49
2022/04/17 04:35:40;;;;;;;14.07;8.52;;;4.60;98.00;;;;;;5052452;28;20493;-49
2022/04/17 04:38:07;;;;;;;13.88;9.15;;;4.50;98.10;;;;;;5048904;28;20071;-50
2022/04/17 04:40:33;;;;;;;16.27;9.15;;;4.50;98.30;;;;;;5016393;28;20091;-49
2022/04/17 04:43:00;;;;;;;14.45;8.88;;;4.50;98.70;;;;;;5015984;28;20048;-49
2022/04/17 04:48:11;;;;;;;14.32;8.80;;;4.50;98.90;;;;;;5033545;28;20049;-49
2022/04/17 04:50:37;;;;;;;17.05;9.57;;;4.40;99.20;;;;;;5037810;28;20033;-49
2022/04/17 04:53:03;;;;;;;14.30;9.02;;;4.40;99.30;;;;;;5041919;28;20083;-49
2022/04/17 04:55:29;;;;;;;16.30;9.43;;;4.40;99.60;;;;;;5053051;28;20037;-50
2022/04/17 04:57:55;;;;;;;13.48;9.00;;;4.50;99.40;;;;;;5052138;28;20492;-49
2022/04/17 05:00:21;;;;;;;15.93;9.32;;;4.50;99.40;;;;;;5017290;28;20051;-50
2022/04/17 05:02:46;;;;;;;14.50;9.05;;;4.50;99.60;;;;;;5052652;28;20041;-53
2022/04/17 05:05:12;;;;;;;16.48;9.45;;;4.50;99.90;;;;;;5032858;28;20065;-53
2022/04/17 05:07:39;;;;;;;14.02;9.60;;;4.50;99.70;;;;;;5033245;28;20409;-53
2022/04/17 05:10:05;;;;;;;15.20;9.52;;;4.50;99.90;;;;;;5043235;28;20048;-49
2022/04/17 05:12:31;;;;;;;15.75;9.40;;;4.50;99.90;;;;;;5051932;28;20029;-51
2022/04/17 05:14:57;;;;;;;15.50;9.27;;;4.50;99.90;;;;;;5030962;28;20408;-53
2022/04/17 05:17:23;;;;;;;16.70;9.15;;;4.60;99.40;;;;;;5032534;28;20037;-52
2022/04/17 05:19:49;;;;;;;14.25;8.90;;;4.70;99.80;;;;;;5032417;28;20052;-53
2022/04/17 05:22:17;;;;;;;17.33;9.70;;;4.70;99.70;;;;;;5028454;28;20040;-52
2022/04/17 05:24:44;;;;;;;14.55;9.40;;;4.70;99.90;;;;;;5052331;28;20040;-53
2022/04/17 05:27:12;;;;;;;15.90;9.00;;;4.70;99.40;;;;;;5034277;28;20060;-53
2022/04/17 05:29:37;;;;;;;14.05;9.25;;;4.90;98.60;;;;;;5051970;28;20041;-50
2022/04/17 05:32:04;;;;;;;12.57;8.80;;;5.00;99.20;;;;;;5052134;28;20036;-53
2022/04/17 05:34:29;;;;;;;13.20;8.68;;;5.00;99.00;;;;;;5016564;28;20123;-49
2022/04/17 05:36:56;;;;;;;15.07;9.43;;;5.20;98.30;;;;;;5032305;28;20120;-51
2022/04/17 05:39:22;;;;;;;15.75;9.75;;;5.30;98.10;;;;;;5052177;28;20040;-53
2022/04/17 05:41:48;;;;;;;13.20;9.23;;;5.40;98.40;;;;;;5051947;28;20052;-53
2022/04/17 05:44:15;;;;;;;15.90;9.18;;;5.50;98.00;;;;;;5033005;28;20047;-52
2022/04/17 05:46:41;;;;;;;14.90;8.98;;;5.60;97.90;;;;;;5028098;28;20033;-48
2022/04/17 05:49:07;;;;;;;13.50;8.90;;;5.80;97.20;;;;;;5049500;28;20770;-49
2022/04/17 05:51:37;;;;;;;15.02;9.18;;;6.10;96.80;;;;;;5049515;28;20120;-48
2022/04/17 05:54:06;;;;;;;14.63;9.45;;;6.40;96.60;;;;;;5049086;28;20036;-51
2022/04/17 05:56:32;;;;;;;14.20;9.45;;;6.70;95.90;;;;;;5052796;28;20029;-48
2022/04/17 05:58:58;;;;;;;13.60;8.90;;;6.90;95.00;;;;;;5032109;28;20051;-52
2022/04/17 06:01:24;;;;;;;15.23;9.43;;;7.10;94.20;;;;;;5043525;28;20523;-51
2022/04/17 06:03:50;;;;;;;13.18;8.80;;;7.30;93.50;;;;;;5054874;28;20041;-52
2022/04/17 06:06:19;;;;;;;14.05;9.55;;;7.30;93.70;;;;;;5054664;28;20044;-52
2022/04/17 06:08:48;;;;;;;13.48;8.50;;;7.40;93.40;;;;;;5050529;28;20068;-52
2022/04/17 06:11:14;;;;;;;14.82;8.82;;;7.60;92.50;;;;;;5051690;28;20510;-53
2022/04/17 06:13:40;;;;;;;15.90;9.32;;;7.80;92.00;;;;;;5051693;28;20073;-52
2022/04/17 06:16:06;;;;;;;16.83;8.80;;;7.80;91.50;;;;;;5051281;28;20037;-52
2022/04/17 06:18:32;;;;;;;14.10;8.70;;;7.80;91.20;;;;;;5049525;28;20116;-51
2022/04/17 06:20:57;;;;;;;13.82;8.82;;;8.00;90.90;;;;;;5047043;28;20576;-51
2022/04/17 06:23:23;;;;;;;13.32;8.85;;;8.20;90.20;;;;;;5046099;28;20041;-49
2022/04/17 06:25:48;;;;;;;12.98;8.32;;;8.20;90.30;;;;;;5050337;28;20074;-52
2022/04/17 06:28:14;;;;;;;13.27;8.75;;;8.50;89.90;;;;;;5050670;28;20099;-53
2022/04/17 06:30:39;;;;;;;14.10;9.35;;;8.50;90.20;;;;;;5051369;28;20496;-51
2022/04/17 06:33:05;;;;;;;12.38;8.73;;;8.40;89.60;;;;;;5049039;28;20680;-50
2022/04/17 06:35:30;;;;;;;12.85;8.57;;;8.30;89.90;;;;;;5051303;28;20100;-51
2022/04/17 06:37:58;;;;;;;13.40;8.80;;;8.30;90.10;;;;;;5051465;28;20119;-51
2022/04/17 06:40:29;;;;;;;13.55;9.00;;;8.40;90.80;;;;;;5051378;28;20041;-51
2022/04/17 06:42:57;;;;;;;12.80;8.68;;;8.40;90.60;;;;;;5034278;28;20443;-55
2022/04/17 06:49:03;;;;;;;13.65;8.63;;;8.50;90.40;;;;;;5054217;28;20028;-51
2022/04/17 06:51:29;;;;;;;12.10;8.55;;;8.60;90.20;;;;;;5054406;28;20041;-52
2022/04/17 06:53:54;;;;;;;13.75;8.70;;;8.70;90.10;;;;;;5054889;28;20474;-50
2022/04/17 06:56:20;;;;;;;11.55;8.10;;;8.80;90.20;;;;;;5055300;28;20461;-50
2022/04/17 06:58:46;;;;;;;18.45;8.95;;;8.90;89.30;;;;;;5020667;28;20033;-52
2022/04/17 07:01:14;;;;;;;13.60;8.88;;;9.00;88.60;;;;;;5054273;28;20156;-52
2022/04/17 07:03:40;;;;;;;14.70;8.80;;;9.10;88.80;;;;;;5054969;28;20045;-52
2022/04/17 07:06:06;;;;;;;12.75;8.00;;;9.20;88.50;;;;;;5053841;28;20070;-52
2022/04/17 07:08:31;;;;;;;11.80;8.00;;;9.30;86.60;;;;;;5054743;28;20475;-53
2022/04/17 07:10:57;;;;;;;11.82;7.85;;;9.30;85.80;;;;;;5054901;28;20049;-52
2022/04/17 07:13:24;;;;;;;13.52;7.82;;;9.40;85.90;;;;;;5054125;28;20041;-52
2022/04/17 07:15:49;;;;;;;11.55;7.85;;;9.50;84.60;;;;;;5183900;23;20048;-52
2022/04/17 07:18:15;;;;;;;13.98;8.05;;;9.60;85.00;;;;;;5076966;28;20040;-50
2022/04/17 07:20:41;;;;;;;13.75;8.02;;;9.60;83.40;;;;;;5076966;28;20105;-53
2022/04/17 07:23:07;;;;;;;15.02;8.05;;;9.70;82.30;;;;;;5094706;28;20039;-49
2022/04/17 07:25:33;;;;;;;12.20;7.50;;;9.70;82.10;;;;;;5111266;28;20045;-52
2022/04/17 07:27:59;;;;;;;11.52;8.07;;;9.80;80.90;;;;;;5112647;28;20035;-51
2022/04/17 07:30:30;;;;;;;12.95;7.80;;;9.90;79.60;;;;;;5107671;28;20046;-52
2022/04/17 07:32:59;;;;;;;11.05;7.28;;;10.00;81.00;;;;;;5115404;28;20124;-49
2022/04/17 07:35:26;;;;;;;11.57;7.43;;;10.10;81.40;;;;;;5111827;28;20040;-52
2022/04/17 07:37:57;;;;;;;13.45;7.82;;;10.20;78.30;;;;;;5111823;28;20032;-51
2022/04/17 07:40:25;;;;;;;10.50;7.72;;;10.30;78.50;;;;;;5110781;28;20055;-53
2022/04/17 07:42:52;;;;;;;11.98;7.68;;;10.40;78.80;;;;;;5108587;28;20036;-52
2022/04/17 07:45:19;;;;;;;10.85;7.53;;;10.50;77.70;;;;;;5105391;28;20031;-50
2022/04/17 07:47:46;;;;;;;11.27;7.30;;;10.60;76.20;;;;;;5093653;28;20554;-55
2022/04/17 07:50:14;;;;;;;11.70;7.80;;;10.70;78.10;;;;;;5093204;28;20533;-54
2022/04/17 07:52:41;;;;;;;11.95;7.85;;;10.80;76.50;;;;;;5100830;28;20130;-56
2022/04/17 07:55:08;;;;;;;12.93;7.72;;;11.00;75.20;;;;;;5104406;28;20525;-55
2022/04/17 08:00:24;;;;;;;11.57;7.35;;;11.20;75.90;;;;;;5112547;28;20055;-51
2022/04/17 08:02:55;;;;;;;12.18;7.50;;;11.30;74.70;;;;;;5071690;28;20047;-55
2022/04/17 08:05:24;;;;;;;12.65;6.93;;;11.40;71.40;;;;;;5092397;28;20054;-55
2022/04/17 08:07:51;;;;;;;11.23;7.18;;;11.50;69.90;;;;;;5073799;28;20487;-51
2022/04/17 08:10:17;;;;;;;13.35;7.32;;;11.60;71.90;;;;;;5111886;28;20123;-53
2022/04/17 08:12:43;;;;;;;12.43;7.28;;;11.70;71.00;;;;;;5111139;28;20617;-55
2022/04/17 08:15:09;;;;;;;14.95;8.20;;;11.80;70.70;;;;;;5108716;28;20048;-54
2022/04/17 08:17:35;;;;;;;10.80;6.53;;;11.90;71.40;;;;;;5111663;28;20102;-54
2022/04/17 08:20:00;;;;;;;11.02;7.10;;;12.00;68.00;;;;;;5109852;27;20027;-54
2022/04/17 08:22:26;;;;;;;11.13;6.53;;;12.10;68.00;;;;;;5113438;28;20044;-53
2022/04/17 08:24:51;;;;;;;12.45;6.70;;;12.20;66.20;;;;;;5105737;28;20494;-54
2022/04/17 08:27:17;;;;;;;12.30;6.95;;;12.30;67.20;;;;;;5089430;28;20043;-54
2022/04/17 08:29:42;;;;;;;12.55;6.63;;;12.40;64.80;;;;;;5070044;28;20107;-54
2022/04/17 08:32:09;;;;;;;11.13;6.63;;;12.40;66.30;;;;;;5109218;28;20058;-53
2022/04/17 08:34:34;;;;;;;13.73;6.93;;;12.40;67.00;;;;;;5084869;28;20168;-52
2022/04/17 08:37:00;;;;;;;9.65;6.93;;;12.50;66.20;;;;;;5078333;28;20488;-54
2022/04/17 08:39:26;;;;;;;10.68;6.70;;;12.60;64.70;;;;;;5092780;28;20522;-53
2022/04/17 08:41:54;;;;;;;10.50;6.60;;;12.60;64.50;;;;;;5090117;28;20093;-54
2022/04/17 08:44:22;;;;;;;10.57;7.07;;;12.70;65.40;;;;;;5106718;28;20035;-54
2022/04/17 08:46:48;;;;;;;9.98;6.53;;;12.80;65.80;;;;;;5105380;28;20612;-54
2022/04/17 08:49:15;;;;;;;10.40;5.70;;;12.90;65.30;;;;;;5113073;28;20126;-53
2022/04/17 08:51:47;;;;;;;10.85;5.90;;;13.10;66.20;;;;;;5095513;28;20169;-54
2022/04/17 08:54:13;;;;;;;9.02;5.68;;;13.20;59.30;;;;;;5076937;28;20126;-52
2022/04/17 08:56:39;;;;;;;8.15;5.47;;;13.20;59.20;;;;;;5089248;28;20050;-52
2022/04/17 08:59:05;;;;;;;9.93;5.90;;;13.20;59.30;;;;;;5100093;28;20035;-54
2022/04/17 09:01:35;;;;;;;10.68;6.03;;;13.20;59.70;;;;;;5112276;28;20564;-55
2022/04/17 09:04:01;;;;;;;10.27;5.60;;;13.30;59.20;;;;;;5109973;28;20422;-54
2022/04/17 09:06:28;;;;;;;9.07;5.68;;;13.30;58.70;;;;;;5112494;28;20081;-55
2022/04/17 09:09:03;;;;;;;9.95;5.57;;;13.40;59.60;;;;;;5095073;28;20043;-52
2022/04/17 09:11:29;;;;;;;11.30;5.32;;;13.40;58.30;;;;;;5112360;27;20040;-54
2022/04/17 09:17:36;;;;;;;7.97;5.30;;;13.60;58.40;;;;;;5111455;28;20073;-51
2022/04/17 09:20:03;;;;;;;9.55;5.40;;;13.60;57.10;;;;;;5111717;28;20039;-53
2022/04/17 09:22:49;;;;;;;10.57;5.43;;;13.60;57.90;;;;;;5111983;28;20046;-53
2022/04/17 09:25:15;;;;;;;8.95;5.45;;;13.70;57.90;;;;;;5091352;28;20044;-52
2022/04/17 09:27:58;;;;;;;7.95;4.93;;;13.80;58.50;;;;;;5109770;27;20087;-55
2022/04/17 09:30:34;;;;;;;7.57;5.13;;;14.00;56.00;;;;;;5101551;28;20039;-52
2022/04/17 09:33:05;;;;;;;8.82;5.35;;;14.00;55.80;;;;;;5111719;28;20031;-53
2022/04/17 09:35:31;;;;;;;9.43;5.43;;;14.00;55.80;;;;;;5111745;28;20080;-55
2022/04/17 09:38:03;;;;;;;8.20;5.25;;;14.10;57.30;;;;;;5111787;28;20038;-55
2022/04/17 09:40:29;;;;;;;10.13;5.50;;;14.30;57.40;;;;;;5109518;28;20487;-54
2022/04/17 09:43:18;;;;;;;9.55;5.28;;;14.40;56.10;;;;;;5089313;28;20040;-55
2022/04/17 09:46:05;;;;;;;9.43;5.43;;;14.50;55.70;;;;;;5108324;27;20062;-54
2022/04/17 09:48:34;;;;;;;7.30;5.50;;;14.50;57.00;;;;;;5083658;28;20530;-53
2022/04/17 09:51:00;;;;;;;7.68;5.40;;;14.60;54.10;;;;;;5104851;28;20027;-50
2022/04/17 09:53:40;;;;;;;9.48;5.13;;;14.60;53.50;;;;;;5108453;28;20088;-49
2022/04/17 09:56:12;;;;;;;9.73;5.20;;;14.60;55.70;;;;;;5097399;28;20032;-52
2022/04/17 09:58:48;;;;;;;7.30;5.03;;;14.70;56.30;;;;;;5104749;28;20043;-50
2022/04/17 10:01:16;;;;;;;7.45;5.25;;;14.80;55.80;;;;;;5073281;28;20096;-50
2022/04/17 10:03:42;;;;;;;7.30;5.35;;;14.90;53.40;;;;;;5104418;28;20583;-50
2022/04/17 10:06:11;;;;;;;7.03;4.40;;;15.00;53.00;;;;;;5107231;28;20147;-49
2022/04/17 10:08:37;;;;;;;7.78;4.70;;;14.90;53.70;;;;;;5076015;28;20079;-49
2022/04/17 10:11:04;;;;;;;6.28;4.30;;;14.90;51.50;;;;;;5111151;28;20043;-49
2022/04/17 10:13:31;;;;;;;6.93;4.57;;;15.00;52.40;;;;;;5112295;28;20043;-53
2022/04/17 10:15:59;;;;;;;7.65;4.72;;;15.00;49.90;;;;;;5111922;28;20051;-53
2022/04/17 10:18:32;;;;;;;9.00;4.90;;;14.90;49.70;;;;;;5111313;28;20043;-52
2022/04/17 10:20:58;;;;;;;7.88;4.65;;;15.00;50.70;;;;;;5090965;28;20071;-49
2022/04/17 10:23:27;;;;;;;7.22;4.47;;;15.00;50.90;;;;;;5075721;28;20111;-50
2022/04/17 10:25:56;;;;;;;8.52;4.45;;;15.00;51.80;;;;;;5108323;28;20043;-49
2022/04/17 10:28:22;;;;;;;8.23;5.00;;;15.10;48.60;;;;;;5111072;28;20042;-51
2022/04/17 10:31:17;;;;;;;9.07;5.18;;;15.20;48.80;;;;;;5108452;28;20032;-50
2022/04/17 10:34:20;;;;;;;8.20;5.25;;;15.20;50.30;;;;;;5088071;28;20055;-53
2022/04/17 10:37:05;;;;;;;7.35;5.00;;;15.30;50.80;;;;;;5073323;28;20377;-52
2022/04/17 10:39:38;;;;;;;7.43;4.10;;;15.40;51.00;;;;;;5109394;28;20051;-49
2022/04/17 10:42:07;;;;;;;6.20;4.35;;;15.50;50.50;;;;;;5111264;28;20031;-49
2022/04/17 10:44:37;;;;;;;9.43;4.85;;;15.70;50.50;;;;;;5111393;28;20035;-52
2022/04/17 10:47:04;;;;;;;7.50;4.65;;;15.80;46.60;;;;;;5108414;28;20119;-49
2022/04/17 10:49:30;;;;;;;8.90;4.63;;;15.80;46.10;;;;;;5110477;28;20052;-50
2022/04/17 10:51:57;;;;;;;7.60;4.82;;;15.70;46.30;;;;;;5103160;28;20043;-50
2022/04/17 10:54:24;;;;;;;7.43;4.47;;;15.60;48.50;;;;;;5103401;28;20043;-50
2022/04/17 10:56:55;;;;;;;6.88;4.63;;;15.70;47.90;;;;;;5103486;28;20040;-50
2022/04/17 10:59:31;;;;;;;7.83;4.73;;;15.70;48.60;;;;;;5100025;28;20076;-50
2022/04/17 11:02:02;;;;;;;6.45;4.90;;;15.70;47.00;;;;;;5104859;28;20785;-53
2022/04/17 11:04:50;;;;;;;6.78;4.65;;;15.70;47.90;;;;;;5080599;28;20035;-50
2022/04/17 11:07:15;;;;;;;7.10;4.65;;;15.70;49.80;;;;;;5103172;28;20433;-51
2022/04/17 11:09:46;;;;;;;9.27;5.22;;;15.90;49.50;;;;;;5113553;28;20036;-52
2022/04/17 11:12:17;;;;;;;7.85;4.72;;;16.00;45.90;;;;;;5103746;28;20035;-54
2022/04/17 11:14:57;;;;;;;6.60;4.03;;;16.00;47.70;;;;;;5097582;28;20042;-49
2022/04/17 11:17:24;;;;;;;6.50;3.90;;;16.10;46.60;;;;;;5089340;28;20032;-52
2022/04/17 11:19:55;;;;;;;6.68;4.35;;;16.10;44.40;;;;;;5108796;28;20043;-51
2022/04/17 11:22:26;;;;;;;5.93;4.30;;;16.20;44.00;;;;;;5103353;28;20403;-51
2022/04/17 11:24:55;;;;;;;8.07;4.20;;;16.20;46.50;;;;;;5102997;28;20027;-50
2022/04/17 11:27:48;;;;;;;6.45;3.92;;;16.30;47.30;;;;;;5098627;28;20173;-52
2022/04/17 11:30:13;;;;;;;8.40;4.75;;;16.40;47.20;;;;;;5104372;28;20141;-53
2022/04/17 11:32:38;;;;;;;6.97;4.15;;;16.50;46.30;;;;;;5105100;28;20047;-48
2022/04/17 11:35:09;;;;;;;5.93;4.38;;;16.50;42.00;;;;;;5110163;28;20093;-53
2022/04/17 11:37:35;;;;;;;6.65;4.32;;;16.50;41.80;;;;;;5108764;28;20040;-48
2022/04/17 11:40:15;;;;;;;6.78;3.70;;;16.40;43.30;;;;;;5112483;28;20047;-51
2022/04/17 11:42:43;;;;;;;7.55;4.30;;;16.40;44.40;;;;;;5102920;28;20075;-52
2022/04/17 11:45:09;;;;;;;8.18;4.20;;;16.50;43.80;;;;;;5096105;28;20091;-49
2022/04/17 11:47:40;;;;;;;7.32;4.35;;;16.60;41.40;;;;;;5105346;28;20403;-49
2022/04/17 11:50:09;;;;;;;6.05;4.57;;;16.50;43.20;;;;;;5090011;28;20039;-48
2022/04/17 11:52:34;;;;;;;5.93;4.70;;;16.50;43.00;;;;;;5109030;28;20508;-52
2022/04/17 11:55:00;;;;;;;7.68;4.97;;;16.50;42.70;;;;;;5104160;28;20073;-49
2022/04/17 11:57:26;;;;;;;7.63;4.47;;;16.40;43.50;;;;;;5109225;28;20024;-49
2022/04/17 11:59:57;;;;;;;6.90;4.78;;;16.40;45.10;;;;;;5109718;28;20069;-50
2022/04/17 12:02:25;;;;;;;7.95;5.03;;;16.40;44.90;;;;;;5102157;28;20036;-51
2022/04/17 12:04:52;;;;;;;8.10;5.40;;;16.30;45.70;;;;;;5105896;28;20048;-51
2022/04/17 12:07:26;;;;;;;8.68;5.05;;;16.40;45.30;;;;;;5113534;28;20391;-49
2022/04/17 12:10:14;;;;;;;9.02;4.90;;;16.40;47.90;;;;;;5112769;28;20126;-49
2022/04/17 12:12:45;;;;;;;7.40;4.88;;;16.40;44.80;;;;;;5112248;28;20036;-49
2022/04/17 12:15:12;;;;;;;7.88;4.60;;;16.50;45.40;;;;;;5113377;28;20325;-50
2022/04/17 12:17:39;;;;;;;7.07;4.88;;;16.60;45.40;;;;;;5113598;28;20043;-49
2022/04/17 12:20:10;;;;;;;7.72;4.90;;;16.50;44.40;;;;;;5105753;28;20028;-49
2022/04/17 12:22:37;;;;;;;7.25;5.05;;;16.60;45.50;;;;;;5082750;28;20402;-50
2022/04/17 12:25:16;;;;;;;8.05;5.15;;;16.60;44.90;;;;;;5100717;28;20487;-50
2022/04/17 12:27:41;;;;;;;8.57;5.25;;;16.60;45.80;;;;;;5104403;28;20133;-52
2022/04/17 12:30:08;;;;;;;9.02;4.97;;;16.60;46.10;;;;;;5093993;28;20040;-51
2022/04/17 12:32:43;;;;;;;5.88;4.70;;;16.60;46.90;;;;;;5110443;28;20058;-49
2022/04/17 12:35:13;;;;;;;6.40;4.45;;;16.80;48.20;;;;;;5107447;27;20031;-49
2022/04/17 12:37:39;;;;;;;6.47;4.72;;;17.00;45.90;;;;;;5104805;28;20066;-51
2022/04/17 12:40:09;;;;;;;8.05;4.05;;;17.00;43.40;;;;;;5110592;28;20047;-49
2022/04/17 12:42:35;;;;;;;7.28;4.68;;;17.00;43.40;;;;;;5067424;28;20100;-50
2022/04/17 12:45:00;;;;;;;5.75;4.43;;;17.00;42.50;;;;;;5112609;22;20019;-51
2022/04/17 12:47:26;;;;;;;9.52;4.15;;;17.00;43.00;;;;;;5067873;28;20078;-52
2022/04/17 12:50:02;;;;;;;6.22;4.15;;;17.00;41.10;;;;;;5066354;28;20044;-51
2022/04/17 12:52:27;;;;;;;7.35;4.20;;;17.00;41.10;;;;;;5068764;28;20059;-54
2022/04/17 12:54:56;;;;;;;6.05;3.53;;;17.00;41.10;;;;;;5066932;28;20496;-52
2022/04/17 12:57:22;;;;;;;6.20;3.90;;;17.10;40.90;;;;;;5045231;28;20311;-50
2022/04/17 12:59:49;;;;;;;5.93;3.78;;;17.10;41.10;;;;;;5059399;28;20079;-53
2022/04/17 13:02:22;;;;;;;9.63;4.10;;;17.10;41.60;;;;;;5059223;28;20127;-50
2022/04/17 13:04:51;;;;;;;6.97;4.38;;;17.20;39.40;;;;;;5064215;28;20037;-49
2022/04/17 13:07:17;;;;;;;6.28;4.20;;;17.10;40.30;;;;;;5054164;28;20514;-55
2022/04/17 13:10:08;;;;;;;7.60;4.22;;;17.10;41.20;;;;;;5065926;28;20119;-52
2022/04/17 13:12:46;;;;;;;7.18;4.10;;;17.10;39.20;;;;;;5054903;28;20135;-53
2022/04/17 13:15:16;;;;;;;6.90;4.28;;;17.00;40.30;;;;;;5061830;28;20037;-53